sensor_id;sensor_type;location;lat;lon;timestamp;P1;durP1;ratioP1;P2;durP2;ratioP2
64915;SDS011;51427;-27.442;153.014;2023-03-25T00:01:16;5.75;;;2.00;;
64915;SDS011;51427;-27.442;153.014;2023-03-25T00:03:44;6.32;;;1.73;;
64915;SDS011;51427;-27.442;153.014;2023-03-25T00:06:15;3.17;;;1.73;;
64915;SDS011;51427;-27.442;153.014;2023-03-25T00:08:42;5.88;;;1.73;;
64915;SDS011;51427;-27.442;153.014;2023-03-25T00:11:09;6.18;;;2.10;;
64915;SDS011;51427;-27.442;153.014;2023-03-25T00:13:36;3.08;;;1.55;;
64915;SDS011;51427;-27.442;153.014;2023-03-25T00:16:05;5.07;;;1.95;;
64915;SDS011;51427;-27.442;153.014;2023-03-25T00:18:34;5.18;;;1.52;;
64915;SDS011;51427;-27.442;153.014;2023-03-25T00:21:02;4.60;;;1.60;;
64915;SDS011;51427;-27.442;153.014;2023-03-25T00:23:35;5.63;;;1.42;;
64915;SDS011;51427;-27.442;153.014;2023-03-25T00:26:03;5.75;;;1.58;;
64915;SDS011;51427;-27.442;153.014;2023-03-25T00:28:32;4.47;;;1.60;;
64915;SDS011;51427;-27.442;153.014;2023-03-25T00:31:05;4.13;;;1.30;;
64915;SDS011;51427;-27.442;153.014;2023-03-25T00:33:36;4.15;;;1.27;;
64915;SDS011;51427;-27.442;153.014;2023-03-25T00:36:06;8.13;;;1.73;;
64915;SDS011;51427;-27.442;153.014;2023-03-25T00:38:34;3.42;;;1.30;;
64915;SDS011;51427;-27.442;153.014;2023-03-25T00:41:12;7.72;;;1.98;;
64915;SDS011;51427;-27.442;153.014;2023-03-25T00:43:53;2.83;;;1.40;;
64915;SDS011;51427;-27.442;153.014;2023-03-25T00:46:23;5.38;;;1.83;;
64915;SDS011;51427;-27.442;153.014;2023-03-25T00:48:54;5.30;;;1.58;;
64915;SDS011;51427;-27.442;153.014;2023-03-25T00:51:23;2.60;;;1.42;;
64915;SDS011;51427;-27.442;153.014;2023-03-25T00:53:52;10.32;;;1.80;;
64915;SDS011;51427;-27.442;153.014;2023-03-25T00:56:22;6.28;;;1.83;;
64915;SDS011;51427;-27.442;153.014;2023-03-25T00:58:49;7.47;;;1.52;;
64915;SDS011;51427;-27.442;153.014;2023-03-25T01:01:18;2.92;;;1.60;;
64915;SDS011;51427;-27.442;153.014;2023-03-25T01:03:48;5.20;;;1.50;;
64915;SDS011;51427;-27.442;153.014;2023-03-25T01:06:39;6.50;;;1.90;;
64915;SDS011;51427;-27.442;153.014;2023-03-25T01:09:09;4.50;;;1.77;;
64915;SDS011;51427;-27.442;153.014;2023-03-25T01:11:40;7.15;;;1.90;;
64915;SDS011;51427;-27.442;153.014;2023-03-25T01:14:16;5.50;;;1.90;;
64915;SDS011;51427;-27.442;153.014;2023-03-25T01:16:45;4.85;;;1.92;;
64915;SDS011;51427;-27.442;153.014;2023-03-25T01:19:13;8.02;;;1.95;;
64915;SDS011;51427;-27.442;153.014;2023-03-25T01:21:40;4.55;;;1.65;;
64915;SDS011;51427;-27.442;153.014;2023-03-25T01:24:10;4.90;;;1.67;;
64915;SDS011;51427;-27.442;153.014;2023-03-25T01:26:40;6.88;;;1.92;;
64915;SDS011;51427;-27.442;153.014;2023-03-25T01:29:08;3.08;;;1.55;;
64915;SDS011;51427;-27.442;153.014;2023-03-25T01:31:36;5.00;;;1.95;;
64915;SDS011;51427;-27.442;153.014;2023-03-25T01:34:04;7.40;;;1.88;;
64915;SDS011;51427;-27.442;153.014;2023-03-25T01:36:32;6.78;;;1.60;;
64915;SDS011;51427;-27.442;153.014;2023-03-25T01:39:02;4.32;;;1.85;;
64915;SDS011;51427;-27.442;153.014;2023-03-25T01:41:30;4.03;;;1.60;;
64915;SDS011;51427;-27.442;153.014;2023-03-25T01:44:04;5.63;;;2.08;;
64915;SDS011;51427;-27.442;153.014;2023-03-25T01:46:31;5.90;;;1.70;;
64915;SDS011;51427;-27.442;153.014;2023-03-25T01:48:59;3.70;;;1.63;;
64915;SDS011;51427;-27.442;153.014;2023-03-25T01:51:31;5.00;;;1.80;;
64915;SDS011;51427;-27.442;153.014;2023-03-25T01:54:02;7.53;;;1.80;;
64915;SDS011;51427;-27.442;153.014;2023-03-25T01:56:32;5.68;;;1.92;;
64915;SDS011;51427;-27.442;153.014;2023-03-25T01:59:04;5.97;;;1.60;;
64915;SDS011;51427;-27.442;153.014;2023-03-25T02:01:34;5.57;;;1.85;;
64915;SDS011;51427;-27.442;153.014;2023-03-25T02:04:01;4.70;;;1.50;;
64915;SDS011;51427;-27.442;153.014;2023-03-25T02:06:36;6.47;;;1.80;;
64915;SDS011;51427;-27.442;153.014;2023-03-25T02:09:12;4.35;;;1.85;;
64915;SDS011;51427;-27.442;153.014;2023-03-25T02:11:43;6.30;;;1.55;;
64915;SDS011;51427;-27.442;153.014;2023-03-25T02:14:17;3.92;;;1.98;;
64915;SDS011;51427;-27.442;153.014;2023-03-25T02:16:54;3.40;;;1.80;;
64915;SDS011;51427;-27.442;153.014;2023-03-25T02:20:38;8.40;;;1.92;;
64915;SDS011;51427;-27.442;153.014;2023-03-25T02:28:14;3.60;;;1.42;;
64915;SDS011;51427;-27.442;153.014;2023-03-25T02:31:09;3.33;;;1.45;;
64915;SDS011;51427;-27.442;153.014;2023-03-25T02:38:51;3.80;;;1.00;;
64915;SDS011;51427;-27.442;153.014;2023-03-25T02:42:01;3.53;;;1.23;;
64915;SDS011;51427;-27.442;153.014;2023-03-25T02:44:29;4.80;;;1.48;;
64915;SDS011;51427;-27.442;153.014;2023-03-25T02:46:58;3.80;;;1.15;;
64915;SDS011;51427;-27.442;153.014;2023-03-25T02:49:30;2.08;;;1.30;;
64915;SDS011;51427;-27.442;153.014;2023-03-25T02:52:13;4.35;;;1.35;;
64915;SDS011;51427;-27.442;153.014;2023-03-25T02:54:45;4.82;;;1.17;;
64915;SDS011;51427;-27.442;153.014;2023-03-25T02:57:17;4.72;;;1.48;;
64915;SDS011;51427;-27.442;153.014;2023-03-25T02:59:47;4.22;;;1.77;;
64915;SDS011;51427;-27.442;153.014;2023-03-25T03:02:18;4.30;;;1.40;;
64915;SDS011;51427;-27.442;153.014;2023-03-25T03:04:51;5.20;;;1.15;;
64915;SDS011;51427;-27.442;153.014;2023-03-25T03:07:22;5.72;;;1.25;;
64915;SDS011;51427;-27.442;153.014;2023-03-25T03:15:32;5.30;;;1.00;;
64915;SDS011;51427;-27.442;153.014;2023-03-25T03:24:31;7.85;;;1.85;;
64915;SDS011;51427;-27.442;153.014;2023-03-25T03:27:23;8.30;;;1.80;;
64915;SDS011;51427;-27.442;153.014;2023-03-25T03:30:10;6.72;;;1.65;;
64915;SDS011;51427;-27.442;153.014;2023-03-25T03:32:56;5.75;;;1.70;;
64915;SDS011;51427;-27.442;153.014;2023-03-25T03:35:47;2.80;;;1.30;;
64915;SDS011;51427;-27.442;153.014;2023-03-25T03:38:40;4.95;;;1.35;;
64915;SDS011;51427;-27.442;153.014;2023-03-25T03:41:14;5.80;;;1.33;;
64915;SDS011;51427;-27.442;153.014;2023-03-25T03:43:53;5.50;;;1.45;;
64915;SDS011;51427;-27.442;153.014;2023-03-25T03:46:34;4.78;;;1.00;;
64915;SDS011;51427;-27.442;153.014;2023-03-25T03:49:29;5.20;;;1.42;;
64915;SDS011;51427;-27.442;153.014;2023-03-25T03:52:07;3.20;;;1.40;;
64915;SDS011;51427;-27.442;153.014;2023-03-25T03:54:49;6.85;;;1.40;;
64915;SDS011;51427;-27.442;153.014;2023-03-25T03:57:22;5.38;;;1.42;;
64915;SDS011;51427;-27.442;153.014;2023-03-25T04:05:21;8.85;;;1.70;;
64915;SDS011;51427;-27.442;153.014;2023-03-25T04:10:29;7.60;;;1.88;;
64915;SDS011;51427;-27.442;153.014;2023-03-25T04:13:07;6.40;;;1.55;;
64915;SDS011;51427;-27.442;153.014;2023-03-25T04:15:38;8.27;;;1.83;;
64915;SDS011;51427;-27.442;153.014;2023-03-25T04:18:07;6.25;;;1.73;;
64915;SDS011;51427;-27.442;153.014;2023-03-25T04:20:34;6.40;;;1.50;;
64915;SDS011;51427;-27.442;153.014;2023-03-25T04:23:02;2.92;;;1.25;;
64915;SDS011;51427;-27.442;153.014;2023-03-25T04:25:30;6.22;;;1.23;;
64915;SDS011;51427;-27.442;153.014;2023-03-25T04:27:58;8.38;;;1.70;;
64915;SDS011;51427;-27.442;153.014;2023-03-25T04:30:26;6.95;;;1.50;;
64915;SDS011;51427;-27.442;153.014;2023-03-25T04:32:55;4.90;;;1.33;;
64915;SDS011;51427;-27.442;153.014;2023-03-25T04:35:22;9.32;;;1.67;;
64915;SDS011;51427;-27.442;153.014;2023-03-25T04:37:50;4.90;;;1.38;;
64915;SDS011;51427;-27.442;153.014;2023-03-25T04:40:21;6.70;;;1.42;;
64915;SDS011;51427;-27.442;153.014;2023-03-25T04:42:50;4.82;;;1.20;;
64915;SDS011;51427;-27.442;153.014;2023-03-25T04:45:17;4.28;;;1.52;;
64915;SDS011;51427;-27.442;153.014;2023-03-25T04:47:46;12.98;;;2.03;;
64915;SDS011;51427;-27.442;153.014;2023-03-25T04:50:20;3.80;;;1.02;;
64915;SDS011;51427;-27.442;153.014;2023-03-25T04:52:52;6.68;;;1.38;;
64915;SDS011;51427;-27.442;153.014;2023-03-25T04:55:30;5.93;;;1.38;;
64915;SDS011;51427;-27.442;153.014;2023-03-25T04:57:59;6.18;;;1.65;;
64915;SDS011;51427;-27.442;153.014;2023-03-25T05:00:26;3.70;;;0.98;;
64915;SDS011;51427;-27.442;153.014;2023-03-25T05:02:54;5.38;;;1.55;;
64915;SDS011;51427;-27.442;153.014;2023-03-25T05:05:22;7.35;;;1.38;;
64915;SDS011;51427;-27.442;153.014;2023-03-25T05:07:51;4.80;;;1.25;;
64915;SDS011;51427;-27.442;153.014;2023-03-25T05:10:23;6.10;;;1.48;;
64915;SDS011;51427;-27.442;153.014;2023-03-25T05:13:01;6.35;;;1.58;;
64915;SDS011;51427;-27.442;153.014;2023-03-25T05:15:31;5.65;;;1.15;;
64915;SDS011;51427;-27.442;153.014;2023-03-25T05:18:06;6.18;;;1.48;;
64915;SDS011;51427;-27.442;153.014;2023-03-25T05:20:45;4.75;;;1.08;;
64915;SDS011;51427;-27.442;153.014;2023-03-25T05:23:15;3.63;;;1.13;;
64915;SDS011;51427;-27.442;153.014;2023-03-25T05:25:46;2.97;;;1.30;;
64915;SDS011;51427;-27.442;153.014;2023-03-25T05:28:15;3.47;;;1.00;;
64915;SDS011;51427;-27.442;153.014;2023-03-25T05:30:44;5.10;;;1.02;;
64915;SDS011;51427;-27.442;153.014;2023-03-25T05:33:13;5.97;;;1.40;;
64915;SDS011;51427;-27.442;153.014;2023-03-25T05:35:42;5.85;;;1.15;;
64915;SDS011;51427;-27.442;153.014;2023-03-25T05:38:10;4.90;;;1.25;;
64915;SDS011;51427;-27.442;153.014;2023-03-25T05:40:39;2.83;;;1.00;;
64915;SDS011;51427;-27.442;153.014;2023-03-25T05:43:06;4.28;;;1.10;;
64915;SDS011;51427;-27.442;153.014;2023-03-25T05:45:33;4.82;;;1.10;;
64915;SDS011;51427;-27.442;153.014;2023-03-25T05:48:01;5.05;;;1.67;;
64915;SDS011;51427;-27.442;153.014;2023-03-25T05:50:29;4.40;;;1.25;;
64915;SDS011;51427;-27.442;153.014;2023-03-25T05:52:56;6.45;;;1.23;;
64915;SDS011;51427;-27.442;153.014;2023-03-25T05:55:24;4.03;;;1.40;;
64915;SDS011;51427;-27.442;153.014;2023-03-25T05:57:52;4.30;;;1.27;;
64915;SDS011;51427;-27.442;153.014;2023-03-25T06:00:23;3.13;;;0.90;;
64915;SDS011;51427;-27.442;153.014;2023-03-25T06:02:50;3.28;;;0.90;;
64915;SDS011;51427;-27.442;153.014;2023-03-25T06:05:17;5.15;;;1.23;;
64915;SDS011;51427;-27.442;153.014;2023-03-25T06:07:48;4.63;;;1.10;;
64915;SDS011;51427;-27.442;153.014;2023-03-25T06:10:16;5.95;;;1.70;;
64915;SDS011;51427;-27.442;153.014;2023-03-25T06:12:44;4.05;;;1.30;;
64915;SDS011;51427;-27.442;153.014;2023-03-25T06:15:14;5.65;;;1.05;;
64915;SDS011;51427;-27.442;153.014;2023-03-25T06:18:08;6.95;;;1.73;;
64915;SDS011;51427;-27.442;153.014;2023-03-25T06:20:35;6.95;;;1.73;;
64915;SDS011;51427;-27.442;153.014;2023-03-25T06:23:02;4.53;;;1.25;;
64915;SDS011;51427;-27.442;153.014;2023-03-25T06:25:31;3.40;;;1.38;;
64915;SDS011;51427;-27.442;153.014;2023-03-25T06:27:58;4.53;;;1.55;;
64915;SDS011;51427;-27.442;153.014;2023-03-25T06:30:27;5.05;;;1.33;;
64915;SDS011;51427;-27.442;153.014;2023-03-25T06:32:55;4.10;;;0.93;;
64915;SDS011;51427;-27.442;153.014;2023-03-25T06:35:23;4.65;;;1.42;;
64915;SDS011;51427;-27.442;153.014;2023-03-25T06:37:51;7.68;;;1.88;;
64915;SDS011;51427;-27.442;153.014;2023-03-25T06:40:18;2.85;;;1.05;;
64915;SDS011;51427;-27.442;153.014;2023-03-25T06:42:47;4.00;;;0.90;;
64915;SDS011;51427;-27.442;153.014;2023-03-25T06:45:14;1.75;;;1.00;;
64915;SDS011;51427;-27.442;153.014;2023-03-25T06:47:41;5.95;;;1.42;;
64915;SDS011;51427;-27.442;153.014;2023-03-25T06:50:08;6.90;;;1.27;;
64915;SDS011;51427;-27.442;153.014;2023-03-25T06:52:36;6.22;;;1.30;;
64915;SDS011;51427;-27.442;153.014;2023-03-25T06:55:03;4.72;;;1.33;;
64915;SDS011;51427;-27.442;153.014;2023-03-25T06:57:31;4.85;;;1.08;;
64915;SDS011;51427;-27.442;153.014;2023-03-25T06:59:58;4.00;;;1.10;;
64915;SDS011;51427;-27.442;153.014;2023-03-25T07:02:25;5.35;;;1.30;;
64915;SDS011;51427;-27.442;153.014;2023-03-25T07:04:52;3.90;;;1.40;;
64915;SDS011;51427;-27.442;153.014;2023-03-25T07:07:20;7.40;;;1.40;;
64915;SDS011;51427;-27.442;153.014;2023-03-25T07:09:53;4.07;;;1.38;;
64915;SDS011;51427;-27.442;153.014;2023-03-25T07:12:21;5.00;;;1.20;;
64915;SDS011;51427;-27.442;153.014;2023-03-25T07:14:50;4.85;;;1.63;;
64915;SDS011;51427;-27.442;153.014;2023-03-25T07:17:22;6.10;;;1.48;;
64915;SDS011;51427;-27.442;153.014;2023-03-25T07:19:49;6.38;;;1.75;;
64915;SDS011;51427;-27.442;153.014;2023-03-25T07:22:16;5.80;;;1.30;;
64915;SDS011;51427;-27.442;153.014;2023-03-25T07:24:44;6.20;;;1.50;;
64915;SDS011;51427;-27.442;153.014;2023-03-25T07:27:12;4.68;;;1.70;;
64915;SDS011;51427;-27.442;153.014;2023-03-25T07:29:40;7.65;;;1.38;;
64915;SDS011;51427;-27.442;153.014;2023-03-25T07:32:07;5.20;;;1.20;;
64915;SDS011;51427;-27.442;153.014;2023-03-25T07:34:35;5.43;;;1.38;;
64915;SDS011;51427;-27.442;153.014;2023-03-25T07:37:02;6.53;;;1.88;;
64915;SDS011;51427;-27.442;153.014;2023-03-25T07:39:30;3.85;;;1.45;;
64915;SDS011;51427;-27.442;153.014;2023-03-25T07:41:57;5.53;;;1.90;;
64915;SDS011;51427;-27.442;153.014;2023-03-25T07:44:24;3.65;;;1.40;;
64915;SDS011;51427;-27.442;153.014;2023-03-25T07:46:51;3.92;;;1.10;;
64915;SDS011;51427;-27.442;153.014;2023-03-25T07:49:19;7.35;;;1.80;;
64915;SDS011;51427;-27.442;153.014;2023-03-25T07:51:46;6.22;;;1.42;;
64915;SDS011;51427;-27.442;153.014;2023-03-25T07:54:13;4.22;;;1.25;;
64915;SDS011;51427;-27.442;153.014;2023-03-25T07:56:41;7.30;;;1.40;;
64915;SDS011;51427;-27.442;153.014;2023-03-25T07:59:08;4.50;;;1.50;;
64915;SDS011;51427;-27.442;153.014;2023-03-25T08:01:35;3.88;;;1.15;;
64915;SDS011;51427;-27.442;153.014;2023-03-25T08:04:02;5.35;;;1.15;;
64915;SDS011;51427;-27.442;153.014;2023-03-25T08:06:30;3.38;;;1.23;;
64915;SDS011;51427;-27.442;153.014;2023-03-25T08:08:57;6.00;;;1.25;;
64915;SDS011;51427;-27.442;153.014;2023-03-25T08:11:24;3.10;;;1.23;;
64915;SDS011;51427;-27.442;153.014;2023-03-25T08:13:51;5.40;;;1.35;;
64915;SDS011;51427;-27.442;153.014;2023-03-25T08:16:18;2.75;;;1.05;;
64915;SDS011;51427;-27.442;153.014;2023-03-25T08:18:46;5.97;;;1.17;;
64915;SDS011;51427;-27.442;153.014;2023-03-25T08:21:18;6.25;;;1.23;;
64915;SDS011;51427;-27.442;153.014;2023-03-25T08:23:53;2.35;;;1.15;;
64915;SDS011;51427;-27.442;153.014;2023-03-25T08:26:33;4.53;;;1.50;;
64915;SDS011;51427;-27.442;153.014;2023-03-25T08:29:01;4.93;;;1.52;;
64915;SDS011;51427;-27.442;153.014;2023-03-25T08:31:29;4.95;;;1.15;;
64915;SDS011;51427;-27.442;153.014;2023-03-25T08:33:57;5.03;;;1.30;;
64915;SDS011;51427;-27.442;153.014;2023-03-25T08:36:26;1.90;;;1.00;;
64915;SDS011;51427;-27.442;153.014;2023-03-25T08:38:53;3.22;;;0.90;;
64915;SDS011;51427;-27.442;153.014;2023-03-25T08:41:21;3.22;;;1.52;;
64915;SDS011;51427;-27.442;153.014;2023-03-25T08:43:49;4.70;;;1.10;;
64915;SDS011;51427;-27.442;153.014;2023-03-25T08:46:16;6.40;;;1.50;;
64915;SDS011;51427;-27.442;153.014;2023-03-25T08:48:43;5.00;;;1.17;;
64915;SDS011;51427;-27.442;153.014;2023-03-25T08:51:12;8.52;;;1.52;;
64915;SDS011;51427;-27.442;153.014;2023-03-25T08:53:40;5.57;;;1.20;;
64915;SDS011;51427;-27.442;153.014;2023-03-25T08:56:08;3.85;;;1.20;;
64915;SDS011;51427;-27.442;153.014;2023-03-25T08:58:35;6.10;;;1.63;;
64915;SDS011;51427;-27.442;153.014;2023-03-25T09:01:03;2.70;;;1.10;;
64915;SDS011;51427;-27.442;153.014;2023-03-25T09:03:31;4.57;;;1.38;;
64915;SDS011;51427;-27.442;153.014;2023-03-25T09:06:03;7.22;;;1.58;;
64915;SDS011;51427;-27.442;153.014;2023-03-25T09:08:30;9.93;;;1.90;;
64915;SDS011;51427;-27.442;153.014;2023-03-25T09:10:58;5.55;;;1.60;;
64915;SDS011;51427;-27.442;153.014;2023-03-25T09:13:25;5.65;;;1.65;;
64915;SDS011;51427;-27.442;153.014;2023-03-25T09:15:53;6.00;;;1.33;;
64915;SDS011;51427;-27.442;153.014;2023-03-25T09:18:20;2.65;;;1.63;;
64915;SDS011;51427;-27.442;153.014;2023-03-25T09:20:47;4.22;;;1.40;;
64915;SDS011;51427;-27.442;153.014;2023-03-25T09:23:16;4.60;;;1.35;;
64915;SDS011;51427;-27.442;153.014;2023-03-25T09:25:44;4.75;;;1.52;;
64915;SDS011;51427;-27.442;153.014;2023-03-25T09:28:11;7.00;;;1.60;;
64915;SDS011;51427;-27.442;153.014;2023-03-25T09:30:39;3.10;;;1.20;;
64915;SDS011;51427;-27.442;153.014;2023-03-25T09:33:06;6.32;;;1.90;;
64915;SDS011;51427;-27.442;153.014;2023-03-25T09:35:33;4.55;;;1.40;;
64915;SDS011;51427;-27.442;153.014;2023-03-25T09:38:01;3.67;;;1.20;;
64915;SDS011;51427;-27.442;153.014;2023-03-25T09:40:28;5.32;;;1.80;;
64915;SDS011;51427;-27.442;153.014;2023-03-25T09:43:51;4.75;;;1.45;;
64915;SDS011;51427;-27.442;153.014;2023-03-25T09:46:13;3.17;;;1.40;;
64915;SDS011;51427;-27.442;153.014;2023-03-25T09:48:41;7.22;;;1.38;;
64915;SDS011;51427;-27.442;153.014;2023-03-25T09:51:17;5.78;;;1.42;;
64915;SDS011;51427;-27.442;153.014;2023-03-25T09:56:58;3.50;;;1.40;;
64915;SDS011;51427;-27.442;153.014;2023-03-25T10:02:04;2.63;;;1.27;;
64915;SDS011;51427;-27.442;153.014;2023-03-25T10:10:24;4.43;;;1.40;;
64915;SDS011;51427;-27.442;153.014;2023-03-25T10:13:06;5.18;;;3.63;;
64915;SDS011;51427;-27.442;153.014;2023-03-25T10:21:15;7.45;;;1.58;;
64915;SDS011;51427;-27.442;153.014;2023-03-25T10:23:55;5.15;;;1.27;;
64915;SDS011;51427;-27.442;153.014;2023-03-25T10:26:29;4.72;;;1.50;;
64915;SDS011;51427;-27.442;153.014;2023-03-25T10:29:20;5.15;;;1.13;;
64915;SDS011;51427;-27.442;153.014;2023-03-25T10:31:53;5.85;;;1.80;;
64915;SDS011;51427;-27.442;153.014;2023-03-25T10:34:50;4.93;;;1.45;;
64915;SDS011;51427;-27.442;153.014;2023-03-25T10:37:24;7.78;;;1.90;;
64915;SDS011;51427;-27.442;153.014;2023-03-25T10:40:02;5.25;;;1.80;;
64915;SDS011;51427;-27.442;153.014;2023-03-25T10:42:47;6.80;;;2.60;;
64915;SDS011;51427;-27.442;153.014;2023-03-25T10:45:22;6.43;;;1.90;;
64915;SDS011;51427;-27.442;153.014;2023-03-25T10:47:50;3.67;;;1.77;;
64915;SDS011;51427;-27.442;153.014;2023-03-25T10:50:20;4.72;;;2.00;;
64915;SDS011;51427;-27.442;153.014;2023-03-25T10:52:48;3.65;;;1.60;;
64915;SDS011;51427;-27.442;153.014;2023-03-25T10:55:24;3.88;;;1.52;;
64915;SDS011;51427;-27.442;153.014;2023-03-25T10:57:54;5.68;;;2.00;;
64915;SDS011;51427;-27.442;153.014;2023-03-25T11:00:22;4.13;;;1.75;;
64915;SDS011;51427;-27.442;153.014;2023-03-25T11:02:51;5.72;;;2.60;;
64915;SDS011;51427;-27.442;153.014;2023-03-25T11:05:21;5.40;;;2.08;;
64915;SDS011;51427;-27.442;153.014;2023-03-25T11:07:53;4.82;;;2.30;;
64915;SDS011;51427;-27.442;153.014;2023-03-25T11:10:30;3.53;;;1.80;;
64915;SDS011;51427;-27.442;153.014;2023-03-25T11:13:00;2.58;;;1.38;;
64915;SDS011;51427;-27.442;153.014;2023-03-25T11:15:38;5.13;;;1.50;;
64915;SDS011;51427;-27.442;153.014;2023-03-25T11:18:21;4.57;;;1.88;;
64915;SDS011;51427;-27.442;153.014;2023-03-25T11:20:55;7.53;;;2.17;;
64915;SDS011;51427;-27.442;153.014;2023-03-25T11:23:44;6.45;;;2.30;;
64915;SDS011;51427;-27.442;153.014;2023-03-25T11:26:24;5.80;;;1.75;;
64915;SDS011;51427;-27.442;153.014;2023-03-25T11:29:10;5.32;;;1.67;;
64915;SDS011;51427;-27.442;153.014;2023-03-25T11:31:41;3.10;;;1.58;;
64915;SDS011;51427;-27.442;153.014;2023-03-25T11:34:18;5.50;;;1.65;;
64915;SDS011;51427;-27.442;153.014;2023-03-25T11:36:53;3.67;;;1.70;;
64915;SDS011;51427;-27.442;153.014;2023-03-25T11:39:39;6.55;;;1.50;;
64915;SDS011;51427;-27.442;153.014;2023-03-25T11:42:29;5.18;;;1.55;;
64915;SDS011;51427;-27.442;153.014;2023-03-25T11:45:00;4.10;;;1.30;;
64915;SDS011;51427;-27.442;153.014;2023-03-25T11:47:30;3.08;;;1.30;;
64915;SDS011;51427;-27.442;153.014;2023-03-25T11:50:03;4.35;;;1.48;;
64915;SDS011;51427;-27.442;153.014;2023-03-25T11:52:42;2.70;;;1.20;;
64915;SDS011;51427;-27.442;153.014;2023-03-25T11:55:30;5.30;;;1.90;;
64915;SDS011;51427;-27.442;153.014;2023-03-25T11:58:02;7.60;;;1.40;;
64915;SDS011;51427;-27.442;153.014;2023-03-25T12:00:32;5.15;;;1.40;;
64915;SDS011;51427;-27.442;153.014;2023-03-25T12:08:11;3.63;;;1.38;;
64915;SDS011;51427;-27.442;153.014;2023-03-25T12:24:43;3.95;;;1.27;;
64915;SDS011;51427;-27.442;153.014;2023-03-25T12:27:22;4.35;;;1.30;;
64915;SDS011;51427;-27.442;153.014;2023-03-25T12:35:25;7.70;;;1.60;;
64915;SDS011;51427;-27.442;153.014;2023-03-25T12:43:11;7.22;;;1.88;;
64915;SDS011;51427;-27.442;153.014;2023-03-25T12:45:47;6.10;;;1.63;;
64915;SDS011;51427;-27.442;153.014;2023-03-25T13:08:03;5.47;;;2.00;;
64915;SDS011;51427;-27.442;153.014;2023-03-25T13:10:41;6.75;;;3.10;;
64915;SDS011;51427;-27.442;153.014;2023-03-25T13:13:13;6.95;;;2.50;;
64915;SDS011;51427;-27.442;153.014;2023-03-25T13:15:46;6.40;;;1.95;;
64915;SDS011;51427;-27.442;153.014;2023-03-25T13:18:20;8.48;;;2.30;;
64915;SDS011;51427;-27.442;153.014;2023-03-25T13:21:31;5.20;;;1.65;;
64915;SDS011;51427;-27.442;153.014;2023-03-25T13:24:10;2.63;;;1.58;;
64915;SDS011;51427;-27.442;153.014;2023-03-25T13:26:50;7.53;;;1.73;;
64915;SDS011;51427;-27.442;153.014;2023-03-25T13:29:25;5.20;;;2.33;;
64915;SDS011;51427;-27.442;153.014;2023-03-25T13:31:57;7.05;;;2.42;;
64915;SDS011;51427;-27.442;153.014;2023-03-25T13:45:13;5.90;;;2.70;;
64915;SDS011;51427;-27.442;153.014;2023-03-25T13:48:00;6.10;;;2.53;;
64915;SDS011;51427;-27.442;153.014;2023-03-25T13:51:01;6.80;;;2.63;;
64915;SDS011;51427;-27.442;153.014;2023-03-25T14:04:31;7.78;;;2.47;;
64915;SDS011;51427;-27.442;153.014;2023-03-25T14:10:01;3.53;;;2.33;;
64915;SDS011;51427;-27.442;153.014;2023-03-25T14:12:53;6.05;;;2.30;;
64915;SDS011;51427;-27.442;153.014;2023-03-25T14:15:31;5.60;;;3.03;;
64915;SDS011;51427;-27.442;153.014;2023-03-25T14:18:01;6.43;;;2.55;;
64915;SDS011;51427;-27.442;153.014;2023-03-25T14:20:33;4.35;;;2.13;;
64915;SDS011;51427;-27.442;153.014;2023-03-25T14:23:04;4.78;;;2.45;;
64915;SDS011;51427;-27.442;153.014;2023-03-25T14:25:36;8.85;;;2.67;;
64915;SDS011;51427;-27.442;153.014;2023-03-25T14:31:36;5.90;;;2.42;;
64915;SDS011;51427;-27.442;153.014;2023-03-25T14:39:08;7.65;;;3.10;;
64915;SDS011;51427;-27.442;153.014;2023-03-25T14:44:33;7.72;;;3.20;;
64915;SDS011;51427;-27.442;153.014;2023-03-25T14:49:48;7.88;;;3.10;;
64915;SDS011;51427;-27.442;153.014;2023-03-25T14:52:49;6.40;;;3.55;;
64915;SDS011;51427;-27.442;153.014;2023-03-25T14:55:30;5.22;;;3.00;;
64915;SDS011;51427;-27.442;153.014;2023-03-25T14:58:06;6.53;;;3.30;;
64915;SDS011;51427;-27.442;153.014;2023-03-25T15:00:50;4.90;;;3.13;;
64915;SDS011;51427;-27.442;153.014;2023-03-25T15:03:30;4.90;;;3.20;;
64915;SDS011;51427;-27.442;153.014;2023-03-25T15:06:15;7.53;;;3.00;;
64915;SDS011;51427;-27.442;153.014;2023-03-25T15:09:02;5.55;;;3.60;;
64915;SDS011;51427;-27.442;153.014;2023-03-25T15:11:35;5.93;;;2.95;;
64915;SDS011;51427;-27.442;153.014;2023-03-25T15:14:08;8.43;;;3.47;;
64915;SDS011;51427;-27.442;153.014;2023-03-25T15:19:15;6.32;;;2.97;;
64915;SDS011;51427;-27.442;153.014;2023-03-25T15:24:27;7.88;;;2.92;;
64915;SDS011;51427;-27.442;153.014;2023-03-25T15:27:09;5.75;;;3.10;;
64915;SDS011;51427;-27.442;153.014;2023-03-25T15:38:23;6.18;;;2.92;;
64915;SDS011;51427;-27.442;153.014;2023-03-25T15:40:58;4.80;;;2.92;;
64915;SDS011;51427;-27.442;153.014;2023-03-25T15:52:42;5.97;;;2.90;;
64915;SDS011;51427;-27.442;153.014;2023-03-25T15:55:18;7.13;;;3.30;;
64915;SDS011;51427;-27.442;153.014;2023-03-25T15:57:54;5.38;;;3.10;;
64915;SDS011;51427;-27.442;153.014;2023-03-25T16:00:49;6.72;;;3.40;;
64915;SDS011;51427;-27.442;153.014;2023-03-25T16:03:22;7.75;;;3.95;;
64915;SDS011;51427;-27.442;153.014;2023-03-25T16:05:55;9.07;;;4.32;;
64915;SDS011;51427;-27.442;153.014;2023-03-25T16:10:56;8.95;;;4.32;;
64915;SDS011;51427;-27.442;153.014;2023-03-25T16:14:03;6.38;;;3.30;;
64915;SDS011;51427;-27.442;153.014;2023-03-25T16:16:33;6.65;;;3.10;;
64915;SDS011;51427;-27.442;153.014;2023-03-25T16:19:03;5.38;;;3.00;;
64915;SDS011;51427;-27.442;153.014;2023-03-25T16:21:34;6.50;;;3.22;;
64915;SDS011;51427;-27.442;153.014;2023-03-25T16:24:02;6.07;;;4.07;;
64915;SDS011;51427;-27.442;153.014;2023-03-25T16:26:33;8.65;;;3.83;;
64915;SDS011;51427;-27.442;153.014;2023-03-25T16:29:06;5.68;;;3.80;;
64915;SDS011;51427;-27.442;153.014;2023-03-25T16:31:55;5.97;;;2.80;;
64915;SDS011;51427;-27.442;153.014;2023-03-25T16:34:25;4.03;;;2.70;;
64915;SDS011;51427;-27.442;153.014;2023-03-25T16:36:54;4.55;;;2.67;;
64915;SDS011;51427;-27.442;153.014;2023-03-25T16:39:22;8.38;;;2.83;;
64915;SDS011;51427;-27.442;153.014;2023-03-25T16:41:50;4.45;;;2.75;;
64915;SDS011;51427;-27.442;153.014;2023-03-25T16:44:24;3.60;;;2.60;;
64915;SDS011;51427;-27.442;153.014;2023-03-25T16:46:52;6.18;;;2.85;;
64915;SDS011;51427;-27.442;153.014;2023-03-25T16:49:26;3.35;;;2.55;;
64915;SDS011;51427;-27.442;153.014;2023-03-25T16:51:56;4.72;;;2.60;;
64915;SDS011;51427;-27.442;153.014;2023-03-25T16:54:30;4.43;;;2.72;;
64915;SDS011;51427;-27.442;153.014;2023-03-25T16:57:10;4.20;;;2.60;;
64915;SDS011;51427;-27.442;153.014;2023-03-25T16:59:46;4.35;;;3.17;;
64915;SDS011;51427;-27.442;153.014;2023-03-25T17:02:23;5.50;;;2.97;;
64915;SDS011;51427;-27.442;153.014;2023-03-25T17:10:39;5.40;;;2.63;;
64915;SDS011;51427;-27.442;153.014;2023-03-25T17:13:16;3.85;;;2.08;;
64915;SDS011;51427;-27.442;153.014;2023-03-25T17:15:52;5.32;;;2.78;;
64915;SDS011;51427;-27.442;153.014;2023-03-25T17:18:19;3.85;;;2.15;;
64915;SDS011;51427;-27.442;153.014;2023-03-25T17:20:53;3.35;;;2.25;;
64915;SDS011;51427;-27.442;153.014;2023-03-25T17:26:05;2.80;;;2.25;;
64915;SDS011;51427;-27.442;153.014;2023-03-25T17:28:36;2.58;;;2.20;;
64915;SDS011;51427;-27.442;153.014;2023-03-25T17:34:18;3.85;;;2.05;;